Thu, 06 May 2021 17:13:45 UTC

Information for RPM xxhash-libs-0.8.0-1.eln103.ppc64le.rpm

ID22314322
Namexxhash-libs
Version0.8.0
Release1.eln103
Epoch
Archppc64le
SummaryExtremely fast hash algorithm - library
DescriptionxxHash is an Extremely fast Hash algorithm, running at RAM speed limits. It successfully completes the SMHasher test suite which evaluates collision, dispersion and randomness qualities of hash functions. Code is highly portable, and hashes are identical on all platforms (little / big endian).
Build Time2020-07-28 07:18:56 GMT
Size37,582
204415e8b79530407d1d1d0a1664163a
LicenseBSD
Buildrooteln-build-21805420-1788690
Provides
libxxhash.so.0()(64bit)
xxhash-libs = 0.8.0-1.eln103
xxhash-libs(ppc-64) = 0.8.0-1.eln103
Obsoletes No Obsoletes
Conflicts No Conflicts
Requires
libc.so.6()(64bit)
libc.so.6(GLIBC_2.17)(64bit)
rpmlib(CompressedFileNames) <= 3.0.4-1
rpmlib(FileDigests) <= 4.6.0-1
rpmlib(PayloadFilesHavePrefix) <= 4.0-1
rpmlib(PayloadIsZstd) <= 5.4.18-1
rtld(GNU_HASH)
Recommends No Recommends
Suggests No Suggests
Supplements No Supplements
Enhances No Enhances
Files
1 through 9 of 9
Name ascending sort Size
/usr/lib/.build-id0
/usr/lib/.build-id/820
/usr/lib/.build-id/82/48ffd12a70ef2e35fd783df5ac38d143a5350640
/usr/lib64/libxxhash.so.018
/usr/lib64/libxxhash.so.0.8.069,128
/usr/share/doc/xxhash-libs0
/usr/share/doc/xxhash-libs/README.md11,920
/usr/share/licenses/xxhash-libs0
/usr/share/licenses/xxhash-libs/LICENSE2,228
Component of
Page:
1 through 50 of 48505 >>>
Buildroot descending sort Created State
eln-build-24422540-2543722 2020-12-07 16:08:16 expired
eln-build-24422298-2543578 2020-12-07 15:49:13 expired
eln-build-24422297-2543578 2020-12-07 15:49:12 expired
eln-build-24422295-2543578 2020-12-07 15:49:12 expired
eln-build-24422273-2543578 2020-12-07 15:47:12 expired
eln-build-24422272-2543578 2020-12-07 15:47:11 expired
eln-build-24422269-2543578 2020-12-07 15:46:57 expired
eln-build-24422246-2543529 2020-12-07 15:39:14 expired
eln-build-24422241-2543494 2020-12-07 15:37:27 expired
eln-build-24422240-2543529 2020-12-07 15:37:09 expired
eln-build-24422207-2543364 2020-12-07 15:21:36 expired
eln-build-24422205-2543364 2020-12-07 15:21:23 expired
eln-build-24422184-2543364 2020-12-07 15:19:54 expired
eln-build-24422176-2543364 2020-12-07 15:19:23 expired
eln-build-24422159-2543364 2020-12-07 15:18:05 expired
eln-build-24422157-2543364 2020-12-07 15:18:04 expired
eln-build-24422147-2543319 2020-12-07 15:16:28 expired
eln-build-24422076-2543319 2020-12-07 15:13:51 expired
eln-build-24422066-2543266 2020-12-07 15:12:11 expired
eln-build-24421911-2543208 2020-12-07 15:03:31 expired
eln-build-24421909-2543208 2020-12-07 15:03:25 expired
eln-build-24421867-2543144 2020-12-07 14:56:32 expired
eln-build-24421841-2543144 2020-12-07 14:54:45 expired
eln-build-24421829-2543084 2020-12-07 14:51:54 expired
eln-build-24421819-2543084 2020-12-07 14:51:06 expired
eln-build-24421815-2543084 2020-12-07 14:50:49 expired
eln-build-24421808-2543084 2020-12-07 14:49:14 expired
eln-build-24421807-2543084 2020-12-07 14:49:13 expired
eln-build-24421704-2542993 2020-12-07 14:39:51 expired
eln-build-24421697-2542882 2020-12-07 14:37:08 expired
eln-build-24421631-2542882 2020-12-07 14:30:26 expired
eln-build-24421626-2542882 2020-12-07 14:30:21 expired
eln-build-24421623-2542882 2020-12-07 14:30:19 expired
eln-build-24421609-2542882 2020-12-07 14:29:52 expired
eln-build-side-32479-24421578-2542850 2020-12-07 14:28:32 expired
eln-build-24421576-2542882 2020-12-07 14:28:31 expired
eln-build-24421555-2542882 2020-12-07 14:28:04 expired
eln-build-side-32479-24421510-2542850 2020-12-07 14:26:18 expired
eln-build-side-32479-24421321-2542711 2020-12-07 14:13:03 expired
eln-build-24421314-2542709 2020-12-07 14:11:58 expired
eln-build-side-32479-24421302-2542711 2020-12-07 14:10:37 expired
eln-build-24421262-2542709 2020-12-07 14:08:31 expired
eln-build-24421251-2542709 2020-12-07 14:06:27 expired
eln-build-24421242-2542618 2020-12-07 13:59:45 expired
eln-build-24421236-2542618 2020-12-07 13:57:54 expired
eln-build-24421235-2542564 2020-12-07 13:54:52 expired
eln-build-side-32479-24421230-2542565 2020-12-07 13:52:49 expired
eln-build-24421229-2542564 2020-12-07 13:52:08 expired
eln-build-24421212-2542532 2020-12-07 13:49:24 expired
eln-build-24421210-2542532 2020-12-07 13:49:20 expired